sensor_id;sensor_type;location;lat;lon;timestamp;P1;durP1;ratioP1;P2;durP2;ratioP2
36725;SDS011;44936;52.086;5.150;2023-02-08T00:01:37;13.65;;;4.20;;
36725;SDS011;44936;52.086;5.150;2023-02-08T00:04:02;11.85;;;4.38;;
36725;SDS011;44936;52.086;5.150;2023-02-08T00:06:29;10.90;;;4.25;;
36725;SDS011;44936;52.086;5.150;2023-02-08T00:08:55;12.85;;;4.43;;
36725;SDS011;44936;52.086;5.150;2023-02-08T00:11:21;12.25;;;3.80;;
36725;SDS011;44936;52.086;5.150;2023-02-08T00:13:46;10.60;;;3.97;;
36725;SDS011;44936;52.086;5.150;2023-02-08T00:16:12;12.52;;;4.10;;
36725;SDS011;44936;52.086;5.150;2023-02-08T00:18:39;12.40;;;3.88;;
36725;SDS011;44936;52.086;5.150;2023-02-08T00:21:08;11.63;;;4.25;;
36725;SDS011;44936;52.086;5.150;2023-02-08T00:23:38;17.63;;;4.47;;
36725;SDS011;44936;52.086;5.150;2023-02-08T00:26:05;12.27;;;5.10;;
36725;SDS011;44936;52.086;5.150;2023-02-08T00:28:31;11.88;;;4.28;;
36725;SDS011;44936;52.086;5.150;2023-02-08T00:30:57;14.05;;;4.95;;
36725;SDS011;44936;52.086;5.150;2023-02-08T00:33:22;10.45;;;4.03;;
36725;SDS011;44936;52.086;5.150;2023-02-08T00:35:48;13.05;;;4.10;;
36725;SDS011;44936;52.086;5.150;2023-02-08T00:38:13;12.82;;;4.78;;
36725;SDS011;44936;52.086;5.150;2023-02-08T00:40:39;13.55;;;4.53;;
36725;SDS011;44936;52.086;5.150;2023-02-08T00:43:04;12.52;;;4.22;;
36725;SDS011;44936;52.086;5.150;2023-02-08T00:45:31;12.23;;;4.43;;
36725;SDS011;44936;52.086;5.150;2023-02-08T00:47:57;13.95;;;4.07;;
36725;SDS011;44936;52.086;5.150;2023-02-08T00:50:22;11.13;;;3.90;;
36725;SDS011;44936;52.086;5.150;2023-02-08T00:52:48;12.10;;;4.13;;
36725;SDS011;44936;52.086;5.150;2023-02-08T00:55:13;12.07;;;4.13;;
36725;SDS011;44936;52.086;5.150;2023-02-08T00:57:39;14.00;;;4.95;;
36725;SDS011;44936;52.086;5.150;2023-02-08T01:00:04;13.05;;;4.00;;
36725;SDS011;44936;52.086;5.150;2023-02-08T01:02:31;11.15;;;4.30;;
36725;SDS011;44936;52.086;5.150;2023-02-08T01:04:56;10.70;;;4.03;;
36725;SDS011;44936;52.086;5.150;2023-02-08T01:07:21;10.40;;;3.95;;
36725;SDS011;44936;52.086;5.150;2023-02-08T01:09:47;11.52;;;3.80;;
36725;SDS011;44936;52.086;5.150;2023-02-08T01:12:12;12.30;;;4.13;;
36725;SDS011;44936;52.086;5.150;2023-02-08T01:14:38;10.85;;;3.95;;
36725;SDS011;44936;52.086;5.150;2023-02-08T01:17:04;13.25;;;4.28;;
36725;SDS011;44936;52.086;5.150;2023-02-08T01:19:29;16.23;;;4.80;;
36725;SDS011;44936;52.086;5.150;2023-02-08T01:21:55;13.25;;;4.68;;
36725;SDS011;44936;52.086;5.150;2023-02-08T01:24:20;12.73;;;4.15;;
36725;SDS011;44936;52.086;5.150;2023-02-08T01:26:46;16.77;;;4.43;;
36725;SDS011;44936;52.086;5.150;2023-02-08T01:29:12;13.15;;;4.07;;
36725;SDS011;44936;52.086;5.150;2023-02-08T01:31:39;14.50;;;4.47;;
36725;SDS011;44936;52.086;5.150;2023-02-08T01:34:06;11.35;;;3.55;;
36725;SDS011;44936;52.086;5.150;2023-02-08T01:36:33;10.65;;;3.80;;
36725;SDS011;44936;52.086;5.150;2023-02-08T01:38:59;13.55;;;4.05;;
36725;SDS011;44936;52.086;5.150;2023-02-08T01:41:27;12.07;;;4.53;;
36725;SDS011;44936;52.086;5.150;2023-02-08T01:46:28;13.48;;;4.15;;
36725;SDS011;44936;52.086;5.150;2023-02-08T01:48:58;11.38;;;4.25;;
36725;SDS011;44936;52.086;5.150;2023-02-08T01:51:30;14.65;;;4.43;;
36725;SDS011;44936;52.086;5.150;2023-02-08T01:54:00;14.50;;;4.53;;
36725;SDS011;44936;52.086;5.150;2023-02-08T01:56:29;11.30;;;3.92;;
36725;SDS011;44936;52.086;5.150;2023-02-08T01:58:59;12.02;;;4.28;;
36725;SDS011;44936;52.086;5.150;2023-02-08T02:01:28;10.80;;;4.25;;
36725;SDS011;44936;52.086;5.150;2023-02-08T02:03:55;11.65;;;3.90;;
36725;SDS011;44936;52.086;5.150;2023-02-08T02:06:25;14.15;;;4.07;;
36725;SDS011;44936;52.086;5.150;2023-02-08T02:08:57;11.98;;;3.75;;
36725;SDS011;44936;52.086;5.150;2023-02-08T02:14:04;10.70;;;3.33;;
36725;SDS011;44936;52.086;5.150;2023-02-08T02:16:30;10.82;;;3.88;;
36725;SDS011;44936;52.086;5.150;2023-02-08T02:18:55;10.02;;;3.72;;
36725;SDS011;44936;52.086;5.150;2023-02-08T02:27:12;10.10;;;3.85;;
36725;SDS011;44936;52.086;5.150;2023-02-08T02:36:00;11.38;;;3.92;;
36725;SDS011;44936;52.086;5.150;2023-02-08T02:44:22;9.60;;;3.33;;
36725;SDS011;44936;52.086;5.150;2023-02-08T02:46:50;10.57;;;3.72;;
36725;SDS011;44936;52.086;5.150;2023-02-08T02:49:26;10.32;;;3.30;;
36725;SDS011;44936;52.086;5.150;2023-02-08T02:54:26;12.77;;;4.03;;
36725;SDS011;44936;52.086;5.150;2023-02-08T02:57:05;11.52;;;3.70;;
36725;SDS011;44936;52.086;5.150;2023-02-08T02:59:34;9.45;;;3.15;;
36725;SDS011;44936;52.086;5.150;2023-02-08T03:02:02;9.95;;;3.88;;
36725;SDS011;44936;52.086;5.150;2023-02-08T03:09:36;13.98;;;4.15;;
36725;SDS011;44936;52.086;5.150;2023-02-08T03:12:19;14.18;;;4.00;;
36725;SDS011;44936;52.086;5.150;2023-02-08T03:17:32;12.27;;;3.70;;
36725;SDS011;44936;52.086;5.150;2023-02-08T03:20:11;8.63;;;3.50;;
36725;SDS011;44936;52.086;5.150;2023-02-08T03:22:44;8.45;;;3.33;;
36725;SDS011;44936;52.086;5.150;2023-02-08T03:25:18;8.65;;;3.10;;
36725;SDS011;44936;52.086;5.150;2023-02-08T03:27:48;11.52;;;3.33;;
36725;SDS011;44936;52.086;5.150;2023-02-08T03:30:43;13.05;;;3.75;;
36725;SDS011;44936;52.086;5.150;2023-02-08T03:33:16;9.07;;;3.53;;
36725;SDS011;44936;52.086;5.150;2023-02-08T03:35:48;11.85;;;3.70;;
36725;SDS011;44936;52.086;5.150;2023-02-08T03:38:24;10.80;;;3.58;;
36725;SDS011;44936;52.086;5.150;2023-02-08T03:40:53;9.52;;;3.35;;
36725;SDS011;44936;52.086;5.150;2023-02-08T03:43:23;11.40;;;3.95;;
36725;SDS011;44936;52.086;5.150;2023-02-08T03:48:50;10.85;;;3.20;;
36725;SDS011;44936;52.086;5.150;2023-02-08T03:51:20;11.15;;;3.80;;
36725;SDS011;44936;52.086;5.150;2023-02-08T03:53:48;13.73;;;4.18;;
36725;SDS011;44936;52.086;5.150;2023-02-08T03:56:20;11.25;;;3.60;;
36725;SDS011;44936;52.086;5.150;2023-02-08T03:58:54;9.63;;;3.55;;
36725;SDS011;44936;52.086;5.150;2023-02-08T04:01:37;11.50;;;3.95;;
36725;SDS011;44936;52.086;5.150;2023-02-08T04:04:08;11.65;;;4.07;;
36725;SDS011;44936;52.086;5.150;2023-02-08T04:06:36;10.35;;;3.60;;
36725;SDS011;44936;52.086;5.150;2023-02-08T04:09:01;9.98;;;3.05;;
36725;SDS011;44936;52.086;5.150;2023-02-08T04:11:27;11.60;;;4.22;;
36725;SDS011;44936;52.086;5.150;2023-02-08T04:13:52;15.27;;;4.90;;
36725;SDS011;44936;52.086;5.150;2023-02-08T04:16:17;10.23;;;3.28;;
36725;SDS011;44936;52.086;5.150;2023-02-08T04:18:43;10.00;;;3.70;;
36725;SDS011;44936;52.086;5.150;2023-02-08T04:21:08;11.60;;;3.17;;
36725;SDS011;44936;52.086;5.150;2023-02-08T04:23:33;10.90;;;3.17;;
36725;SDS011;44936;52.086;5.150;2023-02-08T04:25:59;8.40;;;3.13;;
36725;SDS011;44936;52.086;5.150;2023-02-08T04:28:28;11.73;;;3.40;;
36725;SDS011;44936;52.086;5.150;2023-02-08T04:30:53;9.48;;;3.45;;
36725;SDS011;44936;52.086;5.150;2023-02-08T04:33:22;14.90;;;3.38;;
36725;SDS011;44936;52.086;5.150;2023-02-08T04:35:48;8.30;;;3.50;;
36725;SDS011;44936;52.086;5.150;2023-02-08T04:38:13;12.60;;;4.00;;
36725;SDS011;44936;52.086;5.150;2023-02-08T04:40:38;7.57;;;2.83;;
36725;SDS011;44936;52.086;5.150;2023-02-08T04:43:04;9.75;;;3.38;;
36725;SDS011;44936;52.086;5.150;2023-02-08T04:45:29;10.27;;;3.25;;
36725;SDS011;44936;52.086;5.150;2023-02-08T04:47:56;11.57;;;3.90;;
36725;SDS011;44936;52.086;5.150;2023-02-08T04:50:21;14.82;;;3.83;;
36725;SDS011;44936;52.086;5.150;2023-02-08T04:52:47;9.95;;;3.80;;
36725;SDS011;44936;52.086;5.150;2023-02-08T04:55:12;9.35;;;2.90;;
36725;SDS011;44936;52.086;5.150;2023-02-08T04:57:38;11.18;;;3.50;;
36725;SDS011;44936;52.086;5.150;2023-02-08T05:00:03;10.85;;;3.90;;
36725;SDS011;44936;52.086;5.150;2023-02-08T05:02:30;8.73;;;3.75;;
36725;SDS011;44936;52.086;5.150;2023-02-08T05:04:55;10.48;;;3.28;;
36725;SDS011;44936;52.086;5.150;2023-02-08T05:07:21;11.55;;;4.18;;
36725;SDS011;44936;52.086;5.150;2023-02-08T05:09:46;9.95;;;3.97;;
36725;SDS011;44936;52.086;5.150;2023-02-08T05:12:11;12.02;;;3.80;;
36725;SDS011;44936;52.086;5.150;2023-02-08T05:14:37;8.63;;;3.47;;
36725;SDS011;44936;52.086;5.150;2023-02-08T05:17:02;11.35;;;4.05;;
36725;SDS011;44936;52.086;5.150;2023-02-08T05:19:27;10.73;;;3.90;;
36725;SDS011;44936;52.086;5.150;2023-02-08T05:21:53;9.55;;;3.55;;
36725;SDS011;44936;52.086;5.150;2023-02-08T05:24:18;9.43;;;3.65;;
36725;SDS011;44936;52.086;5.150;2023-02-08T05:26:43;8.48;;;3.22;;
36725;SDS011;44936;52.086;5.150;2023-02-08T05:29:09;13.95;;;3.50;;
36725;SDS011;44936;52.086;5.150;2023-02-08T05:31:34;10.20;;;3.33;;
36725;SDS011;44936;52.086;5.150;2023-02-08T05:34:00;12.57;;;4.32;;
36725;SDS011;44936;52.086;5.150;2023-02-08T05:36:25;12.45;;;3.90;;
36725;SDS011;44936;52.086;5.150;2023-02-08T05:38:51;12.32;;;3.95;;
36725;SDS011;44936;52.086;5.150;2023-02-08T05:41:17;12.07;;;3.92;;
36725;SDS011;44936;52.086;5.150;2023-02-08T05:43:43;10.52;;;4.15;;
36725;SDS011;44936;52.086;5.150;2023-02-08T05:46:08;12.40;;;3.40;;
36725;SDS011;44936;52.086;5.150;2023-02-08T05:48:33;11.25;;;3.58;;
36725;SDS011;44936;52.086;5.150;2023-02-08T05:50:59;11.85;;;3.60;;
36725;SDS011;44936;52.086;5.150;2023-02-08T05:53:25;10.85;;;3.72;;
36725;SDS011;44936;52.086;5.150;2023-02-08T05:55:51;11.27;;;3.92;;
36725;SDS011;44936;52.086;5.150;2023-02-08T05:58:17;16.75;;;4.28;;
36725;SDS011;44936;52.086;5.150;2023-02-08T06:00:42;9.27;;;3.17;;
36725;SDS011;44936;52.086;5.150;2023-02-08T06:03:08;12.00;;;3.95;;
36725;SDS011;44936;52.086;5.150;2023-02-08T06:05:33;10.93;;;3.60;;
36725;SDS011;44936;52.086;5.150;2023-02-08T06:08:02;12.38;;;4.55;;
36725;SDS011;44936;52.086;5.150;2023-02-08T06:10:27;10.35;;;3.78;;
36725;SDS011;44936;52.086;5.150;2023-02-08T06:12:52;13.38;;;3.75;;
36725;SDS011;44936;52.086;5.150;2023-02-08T06:15:18;13.40;;;4.20;;
36725;SDS011;44936;52.086;5.150;2023-02-08T06:17:43;13.98;;;4.13;;
36725;SDS011;44936;52.086;5.150;2023-02-08T06:20:09;9.52;;;3.33;;
36725;SDS011;44936;52.086;5.150;2023-02-08T06:22:34;11.48;;;3.72;;
36725;SDS011;44936;52.086;5.150;2023-02-08T06:25:00;11.93;;;3.83;;
36725;SDS011;44936;52.086;5.150;2023-02-08T06:27:26;14.98;;;4.25;;
36725;SDS011;44936;52.086;5.150;2023-02-08T06:29:51;10.57;;;3.53;;
36725;SDS011;44936;52.086;5.150;2023-02-08T06:32:17;10.07;;;3.63;;
36725;SDS011;44936;52.086;5.150;2023-02-08T06:34:42;14.60;;;4.38;;
36725;SDS011;44936;52.086;5.150;2023-02-08T06:37:08;9.77;;;3.70;;
36725;SDS011;44936;52.086;5.150;2023-02-08T06:39:33;11.80;;;3.90;;
36725;SDS011;44936;52.086;5.150;2023-02-08T06:42:00;11.95;;;3.40;;
36725;SDS011;44936;52.086;5.150;2023-02-08T06:44:25;11.85;;;4.25;;
36725;SDS011;44936;52.086;5.150;2023-02-08T06:46:51;11.95;;;3.83;;
36725;SDS011;44936;52.086;5.150;2023-02-08T06:49:16;14.57;;;4.47;;
36725;SDS011;44936;52.086;5.150;2023-02-08T06:51:42;11.57;;;4.20;;
36725;SDS011;44936;52.086;5.150;2023-02-08T06:54:07;10.43;;;3.85;;
36725;SDS011;44936;52.086;5.150;2023-02-08T06:56:34;10.18;;;3.50;;
36725;SDS011;44936;52.086;5.150;2023-02-08T06:58:59;13.70;;;4.05;;
36725;SDS011;44936;52.086;5.150;2023-02-08T07:01:24;12.32;;;3.65;;
36725;SDS011;44936;52.086;5.150;2023-02-08T07:03:49;11.70;;;3.90;;
36725;SDS011;44936;52.086;5.150;2023-02-08T07:06:15;10.82;;;4.45;;
36725;SDS011;44936;52.086;5.150;2023-02-08T07:08:42;14.48;;;3.90;;
36725;SDS011;44936;52.086;5.150;2023-02-08T07:11:08;12.38;;;3.63;;
36725;SDS011;44936;52.086;5.150;2023-02-08T07:13:35;12.45;;;3.88;;
36725;SDS011;44936;52.086;5.150;2023-02-08T07:16:02;9.65;;;3.80;;
36725;SDS011;44936;52.086;5.150;2023-02-08T07:18:28;15.70;;;4.28;;
36725;SDS011;44936;52.086;5.150;2023-02-08T07:20:54;10.13;;;3.75;;
36725;SDS011;44936;52.086;5.150;2023-02-08T07:23:19;9.20;;;3.88;;
36725;SDS011;44936;52.086;5.150;2023-02-08T07:25:44;14.07;;;4.13;;
36725;SDS011;44936;52.086;5.150;2023-02-08T07:28:10;13.90;;;4.30;;
36725;SDS011;44936;52.086;5.150;2023-02-08T07:30:35;11.45;;;3.65;;
36725;SDS011;44936;52.086;5.150;2023-02-08T07:33:00;11.35;;;3.90;;
36725;SDS011;44936;52.086;5.150;2023-02-08T07:35:26;11.18;;;3.72;;
36725;SDS011;44936;52.086;5.150;2023-02-08T07:37:51;12.85;;;3.35;;
36725;SDS011;44936;52.086;5.150;2023-02-08T07:40:16;10.63;;;3.85;;
36725;SDS011;44936;52.086;5.150;2023-02-08T07:42:42;13.20;;;4.22;;
36725;SDS011;44936;52.086;5.150;2023-02-08T07:45:07;13.25;;;4.03;;
36725;SDS011;44936;52.086;5.150;2023-02-08T07:47:33;12.57;;;4.07;;
36725;SDS011;44936;52.086;5.150;2023-02-08T07:49:58;12.43;;;4.07;;
36725;SDS011;44936;52.086;5.150;2023-02-08T07:52:23;14.95;;;3.63;;
36725;SDS011;44936;52.086;5.150;2023-02-08T07:54:49;13.13;;;4.72;;
36725;SDS011;44936;52.086;5.150;2023-02-08T07:57:14;12.00;;;4.32;;
36725;SDS011;44936;52.086;5.150;2023-02-08T07:59:45;11.95;;;3.60;;
36725;SDS011;44936;52.086;5.150;2023-02-08T08:02:11;12.88;;;3.97;;
36725;SDS011;44936;52.086;5.150;2023-02-08T08:04:38;15.02;;;3.95;;
36725;SDS011;44936;52.086;5.150;2023-02-08T08:07:04;13.00;;;4.00;;
36725;SDS011;44936;52.086;5.150;2023-02-08T08:09:29;15.55;;;4.07;;
36725;SDS011;44936;52.086;5.150;2023-02-08T08:11:54;11.40;;;3.92;;
36725;SDS011;44936;52.086;5.150;2023-02-08T08:14:20;11.50;;;4.63;;
36725;SDS011;44936;52.086;5.150;2023-02-08T08:16:45;10.00;;;3.45;;
36725;SDS011;44936;52.086;5.150;2023-02-08T08:19:10;12.55;;;3.72;;
36725;SDS011;44936;52.086;5.150;2023-02-08T08:21:36;10.60;;;3.92;;
36725;SDS011;44936;52.086;5.150;2023-02-08T08:24:01;10.43;;;3.90;;
36725;SDS011;44936;52.086;5.150;2023-02-08T08:26:26;10.02;;;3.72;;
36725;SDS011;44936;52.086;5.150;2023-02-08T08:28:53;10.43;;;4.00;;
36725;SDS011;44936;52.086;5.150;2023-02-08T08:31:19;9.73;;;3.63;;
36725;SDS011;44936;52.086;5.150;2023-02-08T08:33:46;9.82;;;4.35;;
36725;SDS011;44936;52.086;5.150;2023-02-08T08:36:11;13.02;;;4.40;;
36725;SDS011;44936;52.086;5.150;2023-02-08T08:38:37;11.00;;;4.30;;
36725;SDS011;44936;52.086;5.150;2023-02-08T08:41:10;10.85;;;3.63;;
36725;SDS011;44936;52.086;5.150;2023-02-08T08:43:38;12.27;;;4.95;;
36725;SDS011;44936;52.086;5.150;2023-02-08T08:46:05;10.55;;;4.38;;
36725;SDS011;44936;52.086;5.150;2023-02-08T08:48:31;10.80;;;4.18;;
36725;SDS011;44936;52.086;5.150;2023-02-08T08:50:58;13.20;;;4.47;;
36725;SDS011;44936;52.086;5.150;2023-02-08T08:53:23;11.88;;;4.32;;
36725;SDS011;44936;52.086;5.150;2023-02-08T08:55:49;12.38;;;4.07;;
36725;SDS011;44936;52.086;5.150;2023-02-08T08:58:14;12.32;;;4.70;;
36725;SDS011;44936;52.086;5.150;2023-02-08T09:00:40;12.00;;;4.32;;
36725;SDS011;44936;52.086;5.150;2023-02-08T09:03:05;15.77;;;4.35;;
36725;SDS011;44936;52.086;5.150;2023-02-08T09:05:30;13.02;;;4.57;;
36725;SDS011;44936;52.086;5.150;2023-02-08T09:07:56;10.45;;;3.95;;
36725;SDS011;44936;52.086;5.150;2023-02-08T09:10:21;12.88;;;3.72;;
36725;SDS011;44936;52.086;5.150;2023-02-08T09:12:47;10.90;;;3.72;;
36725;SDS011;44936;52.086;5.150;2023-02-08T09:15:12;14.50;;;3.78;;
36725;SDS011;44936;52.086;5.150;2023-02-08T09:17:37;9.68;;;3.85;;
36725;SDS011;44936;52.086;5.150;2023-02-08T09:20:03;11.93;;;3.95;;
36725;SDS011;44936;52.086;5.150;2023-02-08T09:22:29;20.25;;;4.82;;
36725;SDS011;44936;52.086;5.150;2023-02-08T09:24:54;11.80;;;4.28;;
36725;SDS011;44936;52.086;5.150;2023-02-08T09:27:20;13.00;;;4.20;;
36725;SDS011;44936;52.086;5.150;2023-02-08T09:29:45;12.20;;;4.13;;
36725;SDS011;44936;52.086;5.150;2023-02-08T09:32:11;15.38;;;4.47;;
36725;SDS011;44936;52.086;5.150;2023-02-08T09:34:36;17.73;;;5.15;;
36725;SDS011;44936;52.086;5.150;2023-02-08T09:37:01;13.68;;;4.40;;
36725;SDS011;44936;52.086;5.150;2023-02-08T09:39:26;12.57;;;4.50;;
36725;SDS011;44936;52.086;5.150;2023-02-08T09:44:54;16.77;;;4.60;;
36725;SDS011;44936;52.086;5.150;2023-02-08T09:47:29;15.60;;;4.63;;
36725;SDS011;44936;52.086;5.150;2023-02-08T09:50:05;13.38;;;4.20;;
36725;SDS011;44936;52.086;5.150;2023-02-08T09:52:36;13.90;;;4.40;;
36725;SDS011;44936;52.086;5.150;2023-02-08T09:55:09;12.98;;;4.63;;
36725;SDS011;44936;52.086;5.150;2023-02-08T09:57:44;10.57;;;4.07;;
36725;SDS011;44936;52.086;5.150;2023-02-08T10:00:12;14.90;;;4.18;;
36725;SDS011;44936;52.086;5.150;2023-02-08T10:02:42;11.60;;;4.10;;
36725;SDS011;44936;52.086;5.150;2023-02-08T10:05:09;11.95;;;4.28;;
36725;SDS011;44936;52.086;5.150;2023-02-08T10:07:38;13.00;;;5.07;;
36725;SDS011;44936;52.086;5.150;2023-02-08T10:10:06;15.68;;;5.20;;
36725;SDS011;44936;52.086;5.150;2023-02-08T10:12:37;17.05;;;4.32;;
36725;SDS011;44936;52.086;5.150;2023-02-08T10:18:00;13.32;;;5.22;;
36725;SDS011;44936;52.086;5.150;2023-02-08T10:26:11;16.33;;;4.03;;
36725;SDS011;44936;52.086;5.150;2023-02-08T10:37:20;11.35;;;3.88;;
36725;SDS011;44936;52.086;5.150;2023-02-08T10:39:52;13.50;;;4.60;;
36725;SDS011;44936;52.086;5.150;2023-02-08T10:42:20;16.42;;;4.97;;
36725;SDS011;44936;52.086;5.150;2023-02-08T10:50:05;14.00;;;4.47;;
36725;SDS011;44936;52.086;5.150;2023-02-08T10:52:40;16.23;;;4.60;;
36725;SDS011;44936;52.086;5.150;2023-02-08T10:55:16;17.00;;;4.82;;
36725;SDS011;44936;52.086;5.150;2023-02-08T10:57:43;14.05;;;4.78;;
36725;SDS011;44936;52.086;5.150;2023-02-08T11:02:51;13.40;;;4.10;;
36725;SDS011;44936;52.086;5.150;2023-02-08T11:05:18;13.52;;;4.60;;
36725;SDS011;44936;52.086;5.150;2023-02-08T11:08:11;13.43;;;4.75;;
36725;SDS011;44936;52.086;5.150;2023-02-08T11:10:45;10.82;;;4.60;;
36725;SDS011;44936;52.086;5.150;2023-02-08T11:13:19;12.88;;;4.43;;
36725;SDS011;44936;52.086;5.150;2023-02-08T11:15:50;13.43;;;4.45;;
36725;SDS011;44936;52.086;5.150;2023-02-08T11:20:55;11.43;;;3.78;;
36725;SDS011;44936;52.086;5.150;2023-02-08T11:23:24;11.23;;;4.53;;
36725;SDS011;44936;52.086;5.150;2023-02-08T11:25:53;12.98;;;4.18;;
36725;SDS011;44936;52.086;5.150;2023-02-08T11:28:24;13.60;;;5.13;;
36725;SDS011;44936;52.086;5.150;2023-02-08T11:33:32;11.43;;;3.97;;
36725;SDS011;44936;52.086;5.150;2023-02-08T11:36:02;14.55;;;4.63;;
36725;SDS011;44936;52.086;5.150;2023-02-08T11:38:30;8.97;;;3.07;;
36725;SDS011;44936;52.086;5.150;2023-02-08T11:40:58;13.93;;;4.40;;
36725;SDS011;44936;52.086;5.150;2023-02-08T11:43:33;13.32;;;4.82;;
36725;SDS011;44936;52.086;5.150;2023-02-08T11:46:00;10.80;;;4.47;;
36725;SDS011;44936;52.086;5.150;2023-02-08T11:48:37;12.00;;;4.05;;
36725;SDS011;44936;52.086;5.150;2023-02-08T11:51:11;14.60;;;3.97;;
36725;SDS011;44936;52.086;5.150;2023-02-08T11:53:39;14.30;;;4.57;;
36725;SDS011;44936;52.086;5.150;2023-02-08T11:56:14;13.40;;;4.93;;
36725;SDS011;44936;52.086;5.150;2023-02-08T11:58:40;14.77;;;4.53;;
36725;SDS011;44936;52.086;5.150;2023-02-08T12:01:40;12.48;;;3.92;;
36725;SDS011;44936;52.086;5.150;2023-02-08T12:04:03;14.07;;;5.07;;
36725;SDS011;44936;52.086;5.150;2023-02-08T12:17:22;13.48;;;4.60;;
36725;SDS011;44936;52.086;5.150;2023-02-08T12:22:40;14.48;;;4.63;;
36725;SDS011;44936;52.086;5.150;2023-02-08T12:25:20;11.90;;;4.05;;
36725;SDS011;44936;52.086;5.150;2023-02-08T12:50:17;11.48;;;4.38;;
36725;SDS011;44936;52.086;5.150;2023-02-08T12:52:54;11.93;;;4.70;;
36725;SDS011;44936;52.086;5.150;2023-02-08T12:55:30;10.90;;;4.22;;
36725;SDS011;44936;52.086;5.150;2023-02-08T13:00:50;11.70;;;4.13;;
36725;SDS011;44936;52.086;5.150;2023-02-08T13:06:03;10.40;;;3.45;;
36725;SDS011;44936;52.086;5.150;2023-02-08T13:08:39;9.13;;;3.13;;
36725;SDS011;44936;52.086;5.150;2023-02-08T13:11:12;11.88;;;3.75;;
36725;SDS011;44936;52.086;5.150;2023-02-08T13:13:44;11.75;;;3.47;;
36725;SDS011;44936;52.086;5.150;2023-02-08T13:16:36;11.77;;;4.03;;
36725;SDS011;44936;52.086;5.150;2023-02-08T13:21:51;11.77;;;4.13;;
36725;SDS011;44936;52.086;5.150;2023-02-08T13:26:46;10.82;;;5.00;;
36725;SDS011;44936;52.086;5.150;2023-02-08T13:29:14;11.23;;;3.63;;
36725;SDS011;44936;52.086;5.150;2023-02-08T13:31:43;14.23;;;4.97;;
36725;SDS011;44936;52.086;5.150;2023-02-08T13:34:18;12.10;;;3.58;;
36725;SDS011;44936;52.086;5.150;2023-02-08T13:36:49;10.25;;;3.38;;
36725;SDS011;44936;52.086;5.150;2023-02-08T13:39:33;11.05;;;3.60;;
36725;SDS011;44936;52.086;5.150;2023-02-08T13:42:07;11.05;;;3.78;;
36725;SDS011;44936;52.086;5.150;2023-02-08T13:44:47;11.55;;;3.90;;
36725;SDS011;44936;52.086;5.150;2023-02-08T13:47:26;9.13;;;3.45;;
36725;SDS011;44936;52.086;5.150;2023-02-08T13:58:01;10.23;;;3.60;;
36725;SDS011;44936;52.086;5.150;2023-02-08T14:03:20;8.95;;;3.58;;
36725;SDS011;44936;52.086;5.150;2023-02-08T14:06:07;10.73;;;4.18;;
36725;SDS011;44936;52.086;5.150;2023-02-08T14:11:31;10.43;;;3.22;;
36725;SDS011;44936;52.086;5.150;2023-02-08T14:14:22;11.57;;;3.25;;
36725;SDS011;44936;52.086;5.150;2023-02-08T14:19:29;13.73;;;4.63;;
36725;SDS011;44936;52.086;5.150;2023-02-08T14:22:04;9.45;;;3.72;;
36725;SDS011;44936;52.086;5.150;2023-02-08T14:32:32;11.60;;;4.28;;
36725;SDS011;44936;52.086;5.150;2023-02-08T14:35:03;16.27;;;4.45;;
36725;SDS011;44936;52.086;5.150;2023-02-08T14:37:39;14.60;;;5.20;;
36725;SDS011;44936;52.086;5.150;2023-02-08T14:50:32;8.25;;;3.63;;
36725;SDS011;44936;52.086;5.150;2023-02-08T14:53:05;12.77;;;4.15;;
36725;SDS011;44936;52.086;5.150;2023-02-08T14:55:43;12.80;;;3.90;;
36725;SDS011;44936;52.086;5.150;2023-02-08T14:58:20;10.45;;;3.72;;
36725;SDS011;44936;52.086;5.150;2023-02-08T15:00:50;11.10;;;3.88;;
36725;SDS011;44936;52.086;5.150;2023-02-08T15:03:17;10.07;;;3.58;;
36725;SDS011;44936;52.086;5.150;2023-02-08T15:05:45;11.73;;;4.05;;
36725;SDS011;44936;52.086;5.150;2023-02-08T15:08:20;12.23;;;3.92;;
36725;SDS011;44936;52.086;5.150;2023-02-08T15:10:46;12.35;;;3.80;;
36725;SDS011;44936;52.086;5.150;2023-02-08T15:13:16;10.30;;;3.63;;
36725;SDS011;44936;52.086;5.150;2023-02-08T15:18:21;10.68;;;4.05;;
36725;SDS011;44936;52.086;5.150;2023-02-08T15:20:54;10.30;;;3.72;;
36725;SDS011;44936;52.086;5.150;2023-02-08T15:23:38;11.50;;;4.22;;
36725;SDS011;44936;52.086;5.150;2023-02-08T15:26:05;14.27;;;4.28;;
36725;SDS011;44936;52.086;5.150;2023-02-08T15:28:44;13.98;;;4.30;;
36725;SDS011;44936;52.086;5.150;2023-02-08T15:31:15;13.73;;;4.53;;
36725;SDS011;44936;52.086;5.150;2023-02-08T15:33:43;9.93;;;3.90;;
36725;SDS011;44936;52.086;5.150;2023-02-08T15:36:52;10.60;;;3.55;;
36725;SDS011;44936;52.086;5.150;2023-02-08T15:39:01;11.55;;;3.83;;
36725;SDS011;44936;52.086;5.150;2023-02-08T15:41:34;8.55;;;3.30;;
36725;SDS011;44936;52.086;5.150;2023-02-08T15:44:00;9.40;;;3.38;;
36725;SDS011;44936;52.086;5.150;2023-02-08T15:46:31;12.05;;;3.92;;
36725;SDS011;44936;52.086;5.150;2023-02-08T15:48:59;13.85;;;4.50;;
36725;SDS011;44936;52.086;5.150;2023-02-08T15:51:25;7.95;;;3.45;;
36725;SDS011;44936;52.086;5.150;2023-02-08T15:53:52;16.10;;;4.28;;
36725;SDS011;44936;52.086;5.150;2023-02-08T15:56:21;7.78;;;3.28;;
36725;SDS011;44936;52.086;5.150;2023-02-08T15:58:53;10.45;;;4.28;;
36725;SDS011;44936;52.086;5.150;2023-02-08T16:01:22;8.20;;;3.45;;
36725;SDS011;44936;52.086;5.150;2023-02-08T16:03:50;9.02;;;3.42;;
36725;SDS011;44936;52.086;5.150;2023-02-08T16:06:23;9.23;;;3.08;;
36725;SDS011;44936;52.086;5.150;2023-02-08T16:08:50;9.80;;;3.78;;
36725;SDS011;44936;52.086;5.150;2023-02-08T16:11:25;7.72;;;3.28;;
36725;SDS011;44936;52.086;5.150;2023-02-08T16:13:53;8.43;;;3.08;;
36725;SDS011;44936;52.086;5.150;2023-02-08T16:16:23;11.20;;;3.45;;
36725;SDS011;44936;52.086;5.150;2023-02-08T16:19:04;6.72;;;2.70;;
36725;SDS011;44936;52.086;5.150;2023-02-08T16:21:50;6.90;;;2.75;;
36725;SDS011;44936;52.086;5.150;2023-02-08T16:26:42;5.47;;;2.33;;
36725;SDS011;44936;52.086;5.150;2023-02-08T16:29:17;8.05;;;2.42;;
36725;SDS011;44936;52.086;5.150;2023-02-08T16:31:45;5.85;;;2.40;;
36725;SDS011;44936;52.086;5.150;2023-02-08T16:34:13;6.63;;;1.95;;
36725;SDS011;44936;52.086;5.150;2023-02-08T16:36:45;5.15;;;2.00;;
36725;SDS011;44936;52.086;5.150;2023-02-08T16:39:20;6.80;;;2.58;;
36725;SDS011;44936;52.086;5.150;2023-02-08T16:44:26;7.75;;;2.38;;
36725;SDS011;44936;52.086;5.150;2023-02-08T16:46:56;6.60;;;2.58;;
36725;SDS011;44936;52.086;5.150;2023-02-08T16:49:23;5.20;;;1.98;;
36725;SDS011;44936;52.086;5.150;2023-02-08T16:51:49;6.80;;;2.00;;
36725;SDS011;44936;52.086;5.150;2023-02-08T16:54:18;4.30;;;1.73;;
36725;SDS011;44936;52.086;5.150;2023-02-08T16:56:45;5.43;;;2.35;;
36725;SDS011;44936;52.086;5.150;2023-02-08T16:59:15;4.90;;;1.95;;
36725;SDS011;44936;52.086;5.150;2023-02-08T17:01:41;4.90;;;1.90;;
36725;SDS011;44936;52.086;5.150;2023-02-08T17:04:12;4.57;;;2.13;;
36725;SDS011;44936;52.086;5.150;2023-02-08T17:06:37;4.15;;;1.77;;
36725;SDS011;44936;52.086;5.150;2023-02-08T17:09:05;3.85;;;1.67;;
36725;SDS011;44936;52.086;5.150;2023-02-08T17:11:33;4.95;;;1.80;;
36725;SDS011;44936;52.086;5.150;2023-02-08T17:13:59;5.03;;;1.65;;
36725;SDS011;44936;52.086;5.150;2023-02-08T17:16:29;4.68;;;1.88;;
36725;SDS011;44936;52.086;5.150;2023-02-08T17:18:57;3.83;;;2.20;;
36725;SDS011;44936;52.086;5.150;2023-02-08T17:21:23;7.47;;;2.40;;
36725;SDS011;44936;52.086;5.150;2023-02-08T17:23:50;5.15;;;2.05;;
36725;SDS011;44936;52.086;5.150;2023-02-08T17:26:19;4.90;;;1.80;;